Time;durP1;ratioP1;P1;durP2;ratioP2;P2;SDS_P1;SDS_P2;PMS_P1;PMS_P2;Temp;Humidity;BMP_temperature;BMP_pressure;BME280_temperature;BME280_humidity;BME280_pressure;Samples;Min_cycle;Max_cycle;Signal;HPM_P1;HPM_P2
2022/07/05 00:00:43;;;;;;;5.45;2.50;;;;;;;23.88;43.57;99756.56;5091216;28;20081;-43
2022/07/05 00:03:09;;;;;;;5.93;2.20;;;;;;;23.35;45.06;99757.44;5091044;28;20057;-44
2022/07/05 00:05:35;;;;;;;6.32;2.63;;;;;;;23.17;45.54;99756.25;5090098;28;20024;-43
2022/07/05 00:08:01;;;;;;;5.90;2.70;;;;;;;23.31;46.12;99757.19;5090616;28;20019;-43
2022/07/05 00:10:26;;;;;;;3.65;2.35;;;;;;;23.62;44.57;99756.84;5090975;28;20050;-43
2022/07/05 00:12:52;;;;;;;6.15;2.40;;;;;;;23.98;43.96;99745.56;5090801;28;20478;-42
2022/07/05 00:15:18;;;;;;;3.38;2.38;;;;;;;23.55;44.69;99750.94;5090769;28;20024;-44
2022/07/05 00:17:43;;;;;;;5.55;2.72;;;;;;;23.35;45.05;99755.53;5090384;28;20024;-42
2022/07/05 00:20:09;;;;;;;7.13;2.30;;;;;;;23.44;45.00;99761.13;5090925;28;20349;-42
2022/07/05 00:22:35;;;;;;;5.53;2.53;;;;;;;23.57;44.65;99760.44;5090765;28;20027;-43
2022/07/05 00:25:00;;;;;;;3.97;2.50;;;;;;;23.91;44.27;99751.38;5090901;28;20024;-43
2022/07/05 00:27:25;;;;;;;4.40;2.40;;;;;;;23.33;45.45;99755.00;5090673;28;20107;-43
2022/07/05 00:29:51;;;;;;;3.03;2.40;;;;;;;23.33;45.23;99757.72;5090160;28;20020;-42
2022/07/05 00:32:16;;;;;;;4.75;2.50;;;;;;;23.37;45.34;99757.94;5090748;28;20024;-42
2022/07/05 00:34:42;;;;;;;3.17;2.50;;;;;;;23.67;44.49;99739.69;5090556;28;20027;-43
2022/07/05 00:37:07;;;;;;;5.53;2.50;;;;;;;23.88;44.39;99743.78;5090753;28;20123;-44
2022/07/05 00:39:33;;;;;;;4.22;2.90;;;;;;;23.46;45.12;99741.84;5090261;28;20020;-42
2022/07/05 00:42:00;;;;;;;5.82;3.10;;;;;;;23.32;45.73;99739.81;5090318;28;20077;-42
2022/07/05 00:44:31;;;;;;;3.67;2.80;;;;;;;23.21;46.16;99733.69;5090288;28;20024;-42
2022/07/05 00:46:57;;;;;;;5.70;3.00;;;;;;;23.48;45.39;99724.16;5090517;28;20062;-43
2022/07/05 00:49:22;;;;;;;4.60;2.78;;;;;;;23.29;45.87;99732.25;5089922;28;20080;-44
2022/07/05 00:51:48;;;;;;;3.78;3.10;;;;;;;23.11;46.33;99731.06;5090300;28;20498;-42
2022/07/05 00:54:13;;;;;;;7.20;3.28;;;;;;;23.08;46.77;99725.41;5090161;28;20048;-42
2022/07/05 00:56:39;;;;;;;3.30;3.00;;;;;;;23.35;45.98;99716.72;5090326;28;20024;-43
2022/07/05 00:59:04;;;;;;;5.22;3.10;;;;;;;23.61;45.28;99715.31;5090024;28;20028;-45
2022/07/05 01:01:30;;;;;;;6.35;2.80;;;;;;;23.52;45.45;99717.03;5089952;28;20028;-45
2022/07/05 01:03:55;;;;;;;5.72;2.47;;;;;;;23.36;46.09;99716.41;5090018;28;20069;-43
2022/07/05 01:06:21;;;;;;;4.38;2.67;;;;;;;23.17;47.15;99715.53;5090418;28;20079;-42
2022/07/05 01:08:47;;;;;;;4.20;2.90;;;;;;;23.16;46.79;99697.66;5090164;28;20088;-43
2022/07/05 01:11:14;;;;;;;5.20;2.90;;;;;;;23.74;45.62;99708.34;5090033;28;20039;-42
2022/07/05 01:13:39;;;;;;;3.72;2.58;;;;;;;23.78;45.31;99714.84;5090260;28;20032;-43
2022/07/05 01:16:05;;;;;;;12.77;2.80;;;;;;;23.29;46.52;99715.16;5091891;28;20082;-43
2022/07/05 01:18:32;;;;;;;6.22;3.00;;;;;;;23.44;46.45;99720.41;5094211;28;20028;-43
2022/07/05 01:20:59;;;;;;;5.55;2.80;;;;;;;23.59;46.24;99703.94;5094074;28;20102;-43
2022/07/05 01:23:27;;;;;;;6.65;2.70;;;;;;;23.52;46.70;99706.19;5093890;28;20244;-43
2022/07/05 01:25:54;;;;;;;7.30;2.83;;;;;;;24.32;44.41;99704.56;5094082;28;20028;-44
2022/07/05 01:28:20;;;;;;;7.22;2.80;;;;;;;23.61;46.37;99700.94;5093929;28;20537;-44
2022/07/05 01:30:46;;;;;;;5.05;2.90;;;;;;;23.42;47.07;99696.25;5093842;28;20027;-43
2022/07/05 01:33:12;;;;;;;8.20;2.80;;;;;;;23.41;47.40;99710.91;5093651;28;20416;-43
2022/07/05 01:35:37;;;;;;;6.97;2.80;;;;;;;23.30;47.52;99698.56;5093713;28;20030;-43
2022/07/05 01:38:03;;;;;;;7.63;2.90;;;;;;;24.19;44.83;99703.38;5094019;28;20020;-42
2022/07/05 01:40:29;;;;;;;5.60;3.00;;;;;;;23.56;46.21;99698.25;5093767;28;20473;-44
2022/07/05 01:42:54;;;;;;;3.70;2.63;;;;;;;23.47;46.66;99697.28;5093302;28;20077;-44
2022/07/05 01:48:17;;;;;;;6.60;2.83;;;;;;;23.56;46.73;99696.34;5079739;28;20055;-44
2022/07/05 01:50:47;;;;;;;3.53;2.73;;;;;;;23.99;45.56;99695.56;5093306;28;20416;-43
2022/07/05 01:53:22;;;;;;;7.45;2.65;;;;;;;23.42;47.37;99698.16;5093355;28;20055;-44
2022/07/05 01:55:48;;;;;;;6.10;2.80;;;;;;;23.50;46.83;99707.56;5093411;28;20099;-43
2022/07/05 01:58:14;;;;;;;6.90;2.70;;;;;;;23.60;46.79;99705.53;5093342;28;20463;-43
2022/07/05 02:00:48;;;;;;;6.18;3.00;;;;;;;24.14;45.37;99716.25;5093387;28;20028;-43
2022/07/05 02:03:15;;;;;;;4.55;2.90;;;;;;;24.04;45.63;99705.53;5092186;28;20028;-44
2022/07/05 02:05:42;;;;;;;5.97;2.80;;;;;;;23.52;46.98;99705.38;5092882;28;20028;-43
2022/07/05 02:08:08;;;;;;;7.35;2.92;;;;;;;23.40;47.55;99701.16;5093304;28;20534;-43
2022/07/05 02:10:37;;;;;;;4.55;2.65;;;;;;;23.34;47.21;99712.38;5093413;28;20051;-42
2022/07/05 02:13:07;;;;;;;5.78;2.80;;;;;;;23.52;47.05;99716.25;5093152;28;20096;-43
2022/07/05 02:15:39;;;;;;;6.80;2.53;;;;;;;23.72;46.07;99707.84;5093022;28;20368;-43
2022/07/05 02:18:06;;;;;;;8.23;3.05;;;;;;;23.28;48.15;99727.09;5092875;28;20032;-43
2022/07/05 02:20:33;;;;;;;8.70;2.60;;;;;;;22.99;49.27;99728.72;5093041;28;20020;-43
2022/07/05 02:22:58;;;;;;;6.15;2.60;;;;;;;23.08;49.07;99734.38;5092978;28;20085;-44
2022/07/05 02:25:24;;;;;;;5.97;2.78;;;;;;;23.43;47.68;99735.88;5092380;28;20510;-42
2022/07/05 02:27:50;;;;;;;16.25;2.90;;;;;;;23.66;47.07;99722.56;5092157;28;20077;-44
2022/07/05 02:30:16;;;;;;;8.57;3.08;;;;;;;23.25;48.07;99725.78;5092786;28;20490;-42
2022/07/05 02:32:42;;;;;;;7.93;2.97;;;;;;;23.01;48.66;99723.81;5092769;28;20036;-43
2022/07/05 02:35:09;;;;;;;6.95;3.35;;;;;;;23.16;48.35;99735.63;5092308;28;20028;-43
2022/07/05 02:37:35;;;;;;;7.07;2.80;;;;;;;22.96;48.71;99731.19;5092284;28;20039;-41
2022/07/05 02:40:00;;;;;;;7.22;3.10;;;;;;;23.74;46.50;99738.25;5092303;28;20024;-42
2022/07/05 02:42:26;;;;;;;6.80;2.88;;;;;;;23.03;48.86;99735.22;5092476;28;20051;-44
2022/07/05 02:44:51;;;;;;;8.40;2.85;;;;;;;22.58;50.22;99737.22;5092286;28;20032;-42
2022/07/05 02:47:17;;;;;;;6.40;3.30;;;;;;;22.65;48.83;99742.31;5092262;28;20151;-42
2022/07/05 02:49:42;;;;;;;8.70;3.20;;;;;;;22.69;48.68;99740.63;5092259;28;20047;-42
2022/07/05 02:52:08;;;;;;;15.05;3.45;;;;;;;23.17;47.49;99732.66;5092516;28;20031;-43
2022/07/05 02:54:33;;;;;;;5.63;2.95;;;;;;;22.78;47.90;99741.66;5092030;28;20065;-42
2022/07/05 02:56:59;;;;;;;5.82;3.22;;;;;;;22.70;47.98;99744.19;5092201;28;20032;-43
2022/07/05 02:59:25;;;;;;;4.63;3.10;;;;;;;22.72;47.84;99744.72;5085985;28;20040;-43
2022/07/05 03:01:50;;;;;;;9.48;3.70;;;;;;;22.80;47.44;99738.66;5071979;28;20055;-43
2022/07/05 03:04:16;;;;;;;6.78;3.70;;;;;;;23.02;46.97;99743.63;5071846;28;20035;-42
2022/07/05 03:06:41;;;;;;;7.78;3.60;;;;;;;23.39;45.71;99745.69;5071672;28;20032;-42
2022/07/05 03:09:06;;;;;;;6.57;3.30;;;;;;;22.89;46.89;99753.22;5071431;28;20412;-42
2022/07/05 03:11:32;;;;;;;11.65;3.60;;;;;;;22.70;47.26;99750.41;5071748;28;20078;-43
2022/07/05 03:13:57;;;;;;;18.40;11.05;;;;;;;22.71;47.56;99756.63;5071746;28;20360;-42
2022/07/05 03:16:24;;;;;;;8.18;4.35;;;;;;;22.64;47.92;99746.13;5071585;28;20494;-42
2022/07/05 03:18:50;;;;;;;28.38;19.90;;;;;;;23.46;45.75;99755.44;5071359;28;20129;-42
2022/07/05 03:21:15;;;;;;;10.32;3.80;;;;;;;22.70;47.73;99752.31;5071658;28;20032;-42
2022/07/05 03:23:41;;;;;;;7.68;3.38;;;;;;;22.64;48.10;99752.34;5071206;28;20034;-41
2022/07/05 03:26:06;;;;;;;10.00;4.60;;;;;;;22.62;47.73;99757.25;5071411;28;20028;-42
2022/07/05 03:28:32;;;;;;;6.55;3.70;;;;;;;22.67;48.68;99745.53;5071359;28;20025;-41
2022/07/05 03:30:57;;;;;;;31.88;18.88;;;;;;;23.34;46.84;99743.06;5071617;28;20055;-42
2022/07/05 03:33:23;;;;;;;8.75;3.50;;;;;;;22.94;47.85;99730.66;5071302;28;20556;-43
2022/07/05 03:35:48;;;;;;;6.32;3.38;;;;;;;22.74;48.90;99745.22;5071053;28;20060;-42
2022/07/05 03:38:14;;;;;;;8.50;3.50;;;;;;;22.74;48.90;99737.88;5071110;28;20424;-46
2022/07/05 03:40:39;;;;;;;6.65;3.65;;;;;;;22.84;48.41;99726.13;5070524;28;20502;-42
2022/07/05 03:43:05;;;;;;;12.27;3.90;;;;;;;23.18;47.24;99738.88;5071039;28;20032;-42
2022/07/05 03:45:30;;;;;;;13.60;4.20;;;;;;;23.84;45.65;99737.31;5070984;28;20047;-42
2022/07/05 03:48:00;;;;;;;7.72;3.97;;;;;;;23.58;46.52;99732.16;5071166;28;20073;-42
2022/07/05 03:50:26;;;;;;;8.23;3.80;;;;;;;23.49;46.74;99733.91;5070592;28;20048;-42
2022/07/05 03:52:51;;;;;;;11.50;3.90;;;;;;;23.71;46.31;99733.38;5070739;28;20039;-43
2022/07/05 03:55:17;;;;;;;7.75;3.70;;;;;;;23.85;46.34;99729.97;5071191;28;20020;-42
2022/07/05 03:57:42;;;;;;;8.25;3.83;;;;;;;24.54;45.18;99731.19;5070909;28;20024;-41
2022/07/05 04:00:08;;;;;;;10.30;3.65;;;;;;;24.51;44.99;99742.63;5070447;28;20024;-43
2022/07/05 04:02:34;;;;;;;7.95;3.75;;;;;;;24.43;45.49;99743.28;5070503;28;20028;-44
2022/07/05 04:05:00;;;;;;;7.80;3.72;;;;;;;24.42;45.96;99735.41;5070239;28;20588;-43
2022/07/05 04:07:25;;;;;;;7.45;3.42;;;;;;;24.81;45.35;99734.25;5070789;28;20036;-43
2022/07/05 04:09:50;;;;;;;8.05;3.50;;;;;;;25.01;44.79;99744.00;5070869;28;20016;-39
2022/07/05 04:12:16;;;;;;;5.30;3.88;;;;;;;25.65;43.26;99744.16;5071097;28;20024;-43
2022/07/05 04:14:41;;;;;;;8.40;3.72;;;;;;;25.42;43.43;99727.72;5070617;28;20047;-42
2022/07/05 04:17:07;;;;;;;11.30;4.20;;;;;;;25.53;43.48;99722.88;5070406;28;20017;-42
2022/07/05 04:19:32;;;;;;;8.00;3.78;;;;;;;25.59;43.49;99724.41;5070413;28;20024;-42
2022/07/05 04:21:58;;;;;;;5.72;3.47;;;;;;;25.89;42.89;99720.22;5070443;28;20452;-43
2022/07/05 04:24:23;;;;;;;6.75;3.20;;;;;;;26.96;40.68;99724.25;5069937;28;20028;-42
2022/07/05 04:26:49;;;;;;;4.85;3.45;;;;;;;26.48;41.05;99722.97;5070391;28;20028;-43
2022/07/05 04:29:14;;;;;;;5.22;3.10;;;;;;;26.44;40.92;99718.44;5070438;28;20126;-37
2022/07/05 04:31:40;;;;;;;4.85;3.30;;;;;;;26.72;40.31;99717.22;5070341;28;20028;-37
2022/07/05 04:34:05;;;;;;;4.45;2.95;;;;;;;26.96;39.85;99707.88;5070306;28;20033;-36
2022/07/05 04:36:31;;;;;;;6.95;4.03;;;;;;;28.06;37.85;99706.13;5070477;28;20460;-37
2022/07/05 04:38:56;;;;;;;15.13;9.05;;;;;;;27.49;38.65;99717.09;5070468;28;20217;-37
2022/07/05 04:41:22;;;;;;;9.65;3.40;;;;;;;27.60;38.73;99710.22;5070438;28;20025;-37
2022/07/05 04:43:48;;;;;;;7.60;3.33;;;;;;;27.72;38.46;99709.63;5070381;28;20017;-43
2022/07/05 04:46:13;;;;;;;11.60;4.88;;;;;;;27.80;37.68;99708.03;5069804;28;20025;-46
2022/07/05 04:48:39;;;;;;;8.30;3.70;;;;;;;28.70;35.89;99712.06;5068398;28;20128;-46
2022/07/05 04:51:04;;;;;;;11.40;3.85;;;;;;;28.51;36.42;99720.59;5070357;28;20070;-44
2022/07/05 04:53:30;;;;;;;16.98;3.17;;;;;;;28.60;36.03;99722.22;5068640;28;20093;-42
2022/07/05 04:55:55;;;;;;;11.13;3.30;;;;;;;28.68;36.52;99726.06;5069910;28;20055;-44
2022/07/05 04:58:21;;;;;;;9.55;3.50;;;;;;;28.61;36.76;99714.81;5077718;28;20024;-43
2022/07/05 05:00:46;;;;;;;6.60;3.20;;;;;;;29.71;34.52;99717.75;5080716;28;20031;-45
2022/07/05 05:03:12;;;;;;;6.07;3.38;;;;;;;29.14;34.81;99710.81;5079897;28;20021;-44
2022/07/05 05:05:37;;;;;;;7.78;2.92;;;;;;;29.29;34.37;99714.13;5083232;28;20103;-42
2022/07/05 05:08:02;;;;;;;8.40;3.15;;;;;;;29.23;34.02;99717.06;5077470;28;20480;-43
2022/07/05 05:10:28;;;;;;;8.63;3.05;;;;;;;30.18;32.93;99725.03;5079567;28;20017;-42
2022/07/05 05:12:53;;;;;;;3.95;2.80;;;;;;;30.15;32.84;99721.00;5078215;28;20073;-46
2022/07/05 05:15:19;;;;;;;6.20;3.20;;;;;;;29.93;33.29;99733.16;5077436;28;20109;-42
2022/07/05 05:17:44;;;;;;;7.18;3.00;;;;;;;30.11;32.60;99743.97;5078629;28;20020;-43
2022/07/05 05:20:15;;;;;;;9.98;2.80;;;;;;;30.65;31.89;99743.22;5069721;28;20028;-42
2022/07/05 05:22:42;;;;;;;4.00;2.90;;;;;;;30.73;31.44;99745.88;5068591;28;20093;-43
2022/07/05 05:25:09;;;;;;;6.78;2.97;;;;;;;30.60;32.23;99742.28;5079936;28;20028;-45
2022/07/05 05:27:34;;;;;;;6.68;2.70;;;;;;;30.76;32.11;99739.69;5088664;28;20420;-45
2022/07/05 05:30:00;;;;;;;4.75;2.83;;;;;;;30.75;31.88;99754.56;5088699;28;20028;-43
2022/07/05 05:32:26;;;;;;;5.10;3.17;;;;;;;31.20;31.39;99746.69;5088892;28;20035;-44
2022/07/05 05:34:51;;;;;;;6.60;3.30;;;;;;;31.56;30.69;99749.44;5088566;28;20020;-43
2022/07/05 05:37:16;;;;;;;6.82;3.10;;;;;;;31.26;31.24;99748.06;5088361;28;20020;-42
2022/07/05 05:39:42;;;;;;;7.88;3.20;;;;;;;31.14;31.34;99746.88;5088740;28;20538;-41
2022/07/05 05:42:07;;;;;;;6.82;3.00;;;;;;;31.52;31.39;99745.78;5088752;28;20100;-43
2022/07/05 05:44:33;;;;;;;5.85;3.03;;;;;;;32.17;29.97;99746.97;5087589;28;20047;-43
2022/07/05 05:46:58;;;;;;;7.75;3.92;;;;;;;31.62;31.05;99749.22;5087600;28;20146;-43
2022/07/05 05:49:24;;;;;;;12.15;3.53;;;;;;;31.53;31.40;99752.91;5086957;28;20101;-42
2022/07/05 05:51:49;;;;;;;7.47;3.30;;;;;;;31.73;30.66;99748.41;5088719;28;20031;-44
2022/07/05 05:54:15;;;;;;;10.90;3.53;;;;;;;32.91;29.42;99750.22;5088061;28;20371;-44
2022/07/05 05:56:40;;;;;;;9.80;3.50;;;;;;;32.29;30.28;99747.75;5086370;28;20142;-42
2022/07/05 05:59:05;;;;;;;7.35;4.15;;;;;;;32.26;29.92;99753.94;5081999;28;20016;-43
2022/07/05 06:01:31;;;;;;;9.00;3.35;;;;;;;32.22;30.70;99738.50;5066061;28;20099;-43
2022/07/05 06:03:56;;;;;;;5.90;3.45;;;;;;;33.02;29.07;99756.03;5069004;28;20040;-43
2022/07/05 06:06:22;;;;;;;7.88;3.17;;;;;;;32.52;30.22;99755.47;5070363;28;20128;-42
2022/07/05 06:08:47;;;;;;;7.47;3.40;;;;;;;32.53;30.30;99754.31;5070433;28;20036;-42
2022/07/05 06:11:13;;;;;;;9.43;3.30;;;;;;;32.83;30.17;99754.75;5069979;28;20029;-45
2022/07/05 06:13:39;;;;;;;9.13;3.30;;;;;;;33.35;29.21;99743.88;5070956;28;20047;-44
2022/07/05 06:16:06;;;;;;;9.27;3.47;;;;;;;33.33;28.57;99743.41;5070851;28;20032;-42
2022/07/05 06:18:31;;;;;;;7.78;3.47;;;;;;;33.33;28.35;99741.47;5069709;28;20055;-43
2022/07/05 06:20:57;;;;;;;7.57;3.03;;;;;;;33.24;28.37;99744.41;5070487;28;20552;-43
2022/07/05 06:23:22;;;;;;;8.70;3.40;;;;;;;33.98;27.24;99734.69;5071027;28;20189;-43
2022/07/05 06:25:48;;;;;;;6.15;2.80;;;;;;;34.07;27.73;99729.75;5070758;28;20466;-45
2022/07/05 06:28:14;;;;;;;5.78;3.10;;;;;;;33.99;28.17;99725.25;5071879;28;20119;-43
2022/07/05 06:30:39;;;;;;;6.85;3.40;;;;;;;33.77;27.96;99721.22;5072911;28;20028;-44
2022/07/05 06:33:05;;;;;;;6.80;2.95;;;;;;;34.30;27.62;99731.81;5071238;28;20035;-40
2022/07/05 06:35:31;;;;;;;6.90;2.95;;;;;;;34.51;27.06;99720.38;5072140;28;20377;-46
2022/07/05 06:38:07;;;;;;;7.85;2.85;;;;;;;34.39;27.27;99722.13;5072130;28;20040;-45
2022/07/05 06:40:39;;;;;;;6.07;2.92;;;;;;;34.23;27.02;99726.94;5072065;28;20480;-45
2022/07/05 06:43:09;;;;;;;10.52;3.17;;;;;;;34.03;27.11;99721.38;5071677;28;20028;-45
2022/07/05 06:45:35;;;;;;;4.53;2.90;;;;;;;34.28;26.75;99715.59;5072251;28;20032;-46
2022/07/05 06:48:06;;;;;;;7.18;2.90;;;;;;;34.37;26.76;99723.69;5071713;28;20105;-44
2022/07/05 06:50:33;;;;;;;7.55;3.00;;;;;;;34.43;26.48;99714.72;5071638;28;20086;-45
2022/07/05 06:52:59;;;;;;;5.30;2.92;;;;;;;35.04;26.15;99707.53;5071744;28;20028;-44
2022/07/05 06:55:27;;;;;;;4.85;2.70;;;;;;;35.78;24.66;99708.31;5071432;28;20081;-45
2022/07/05 06:58:05;;;;;;;8.77;2.70;;;;;;;35.44;24.65;99703.44;5071895;28;20028;-43
2022/07/05 07:00:34;;;;;;;5.25;2.97;;;;;;;35.56;25.49;99704.41;5071151;28;20028;-44
2022/07/05 07:03:00;;;;;;;6.50;2.97;;;;;;;35.76;24.67;99708.66;5071373;28;20020;-43
2022/07/05 07:05:26;;;;;;;6.57;2.80;;;;;;;36.47;23.67;99705.19;5071221;28;20071;-43
2022/07/05 07:10:35;;;;;;;5.13;2.75;;;;;;;35.90;24.26;99693.41;5071618;28;20028;-42
2022/07/05 07:13:01;;;;;;;5.13;3.10;;;;;;;35.52;25.34;99684.97;5071120;28;20036;-42
2022/07/05 07:15:28;;;;;;;6.72;2.70;;;;;;;36.28;23.92;99686.00;5071138;28;20025;-44
2022/07/05 07:17:53;;;;;;;7.82;2.75;;;;;;;35.93;23.38;99685.16;5071358;28;20067;-42
2022/07/05 07:20:19;;;;;;;5.15;2.83;;;;;;;35.64;24.39;99689.47;5071375;28;20078;-42
2022/07/05 07:22:44;;;;;;;6.05;3.00;;;;;;;34.86;25.43;99681.56;5071125;28;20036;-44
2022/07/05 07:25:11;;;;;;;7.13;3.00;;;;;;;35.81;24.56;99677.91;5070873;28;20457;-45
2022/07/05 07:27:47;;;;;;;4.90;2.97;;;;;;;35.53;24.87;99683.00;5071266;28;20021;-42
2022/07/05 07:30:18;;;;;;;4.22;2.90;;;;;;;35.74;24.71;99675.03;5071195;28;20032;-45
2022/07/05 07:32:44;;;;;;;5.72;2.97;;;;;;;35.53;23.37;99683.81;5071154;28;20032;-44
2022/07/05 07:35:10;;;;;;;7.82;3.20;;;;;;;36.54;22.37;99682.31;5070616;28;20051;-43
2022/07/05 07:37:36;;;;;;;8.02;3.05;;;;;;;36.00;23.34;99681.66;5071034;28;20052;-44
2022/07/05 07:40:03;;;;;;;6.35;3.13;;;;;;;35.85;23.27;99679.91;5070842;28;20074;-43
2022/07/05 07:42:29;;;;;;;5.93;2.65;;;;;;;36.11;23.86;99674.28;5070929;28;20025;-46
2022/07/05 07:44:54;;;;;;;6.93;2.90;;;;;;;36.98;22.05;99682.31;5071062;28;20039;-46
2022/07/05 07:47:19;;;;;;;5.82;2.80;;;;;;;36.94;20.85;99687.03;5070309;28;20025;-45
2022/07/05 07:49:45;;;;;;;9.65;3.00;;;;;;;36.91;21.46;99690.56;5069474;28;20091;-42
2022/07/05 07:52:11;;;;;;;5.90;2.80;;;;;;;36.93;21.83;99690.19;5070808;28;20107;-44
2022/07/05 07:54:36;;;;;;;4.38;2.80;;;;;;;36.88;22.16;99687.75;5070361;28;20079;-45
2022/07/05 07:57:04;;;;;;;10.32;3.53;;;;;;;36.55;22.62;99687.44;5070164;28;20032;-44
2022/07/05 07:59:30;;;;;;;;;;;;;;;36.97;21.83;99685.47;5077938;28;20096;-45
2022/07/05 08:01:55;;;;;;;7.07;2.90;;;;;;;36.44;21.63;99683.78;5091128;28;20348;-43
2022/07/05 08:04:20;;;;;;;6.85;3.65;;;;;;;36.65;21.56;99691.53;5090485;28;20123;-43
2022/07/05 08:06:46;;;;;;;4.63;3.10;;;;;;;36.07;21.75;99698.38;5090552;28;20106;-43
2022/07/05 08:09:12;;;;;;;7.30;3.15;;;;;;;35.86;21.17;99689.81;5090650;28;20073;-42
2022/07/05 08:11:38;;;;;;;6.43;3.40;;;;;;;36.01;21.75;99699.88;5090655;28;20024;-45
2022/07/05 08:14:03;;;;;;;7.32;3.10;;;;;;;36.01;21.65;99697.13;5090480;28;20104;-43
2022/07/05 08:16:28;;;;;;;8.90;3.25;;;;;;;36.30;21.70;99686.41;5090615;28;20028;-44
2022/07/05 08:21:38;;;;;;;3.47;2.60;;;;;;;36.70;21.22;99702.28;5090155;28;20108;-44
2022/07/05 08:24:05;;;;;;;8.30;3.10;;;;;;;36.89;20.55;99686.59;5090095;28;20087;-43
2022/07/05 08:26:30;;;;;;;5.57;3.20;;;;;;;37.12;20.51;99689.16;5089916;28;20399;-45
2022/07/05 08:28:58;;;;;;;6.10;3.22;;;;;;;36.76;21.59;99691.63;5090503;28;20027;-45
2022/07/05 08:31:24;;;;;;;8.00;3.05;;;;;;;36.82;21.61;99694.84;5090360;28;20024;-43
2022/07/05 08:33:51;;;;;;;6.07;3.00;;;;;;;36.88;21.09;99690.53;5090171;28;20110;-45
2022/07/05 08:36:16;;;;;;;3.95;3.30;;;;;;;38.11;20.53;99687.38;5090432;28;20341;-44
2022/07/05 08:38:42;;;;;;;5.82;3.30;;;;;;;37.52;21.13;99693.81;5090224;28;20038;-44
2022/07/05 08:41:09;;;;;;;5.50;3.10;;;;;;;37.40;21.52;99682.25;5090774;28;20024;-44
2022/07/05 08:43:42;;;;;;;6.90;3.10;;;;;;;37.49;21.16;99675.16;5090313;28;20085;-43
2022/07/05 08:46:10;;;;;;;7.53;3.10;;;;;;;38.39;19.82;99677.56;5090133;28;20327;-46
2022/07/05 08:48:43;;;;;;;5.47;3.10;;;;;;;37.49;20.43;99677.13;5090098;28;20514;-43
2022/07/05 08:51:23;;;;;;;9.27;3.13;;;;;;;37.06;20.53;99674.84;5089853;28;20476;-46
2022/07/05 08:53:51;;;;;;;4.78;3.00;;;;;;;36.49;20.71;99669.59;5089832;28;20060;-46
2022/07/05 08:56:18;;;;;;;12.15;3.33;;;;;;;36.64;20.82;99655.88;5090180;28;20108;-43
2022/07/05 08:58:44;;;;;;;5.53;3.45;;;;;;;35.80;21.26;99668.00;5090037;28;20020;-43
2022/07/05 09:01:11;;;;;;;6.25;3.10;;;;;;;36.05;21.11;99656.44;5089681;28;20019;-43
2022/07/05 09:03:47;;;;;;;4.15;2.90;;;;;;;36.00;21.53;99656.75;5090001;28;20027;-44
2022/07/05 09:06:16;;;;;;;7.97;3.10;;;;;;;36.25;21.10;99656.28;5090193;28;20136;-46
2022/07/05 09:08:41;;;;;;;6.97;3.20;;;;;;;36.15;21.35;99650.19;5090233;28;20030;-45
2022/07/05 09:11:12;;;;;;;5.60;2.90;;;;;;;35.96;21.45;99642.09;5089672;28;20028;-43
2022/07/05 09:13:40;;;;;;;5.35;3.10;;;;;;;35.85;22.08;99643.94;5089964;28;20502;-42
2022/07/05 09:16:06;;;;;;;4.55;2.95;;;;;;;36.17;21.27;99647.88;5089972;28;20024;-43
2022/07/05 09:18:51;;;;;;;6.03;3.08;;;;;;;35.86;22.42;99637.22;5088630;28;20028;-45
2022/07/05 09:21:19;;;;;;;6.85;3.00;;;;;;;36.05;21.81;99634.28;5089770;28;20126;-43
2022/07/05 09:23:54;;;;;;;7.53;2.95;;;;;;;36.09;21.72;99637.88;5089960;28;20050;-44
2022/07/05 09:26:19;;;;;;;5.20;3.10;;;;;;;36.94;21.30;99636.34;5089954;28;20028;-47
2022/07/05 09:28:55;;;;;;;7.53;3.05;;;;;;;36.87;21.86;99628.75;5090089;28;20019;-44
2022/07/05 09:31:28;;;;;;;5.50;3.20;;;;;;;36.80;22.29;99634.25;5089832;28;20031;-45
2022/07/05 09:33:54;;;;;;;6.10;3.13;;;;;;;36.55;23.11;99629.25;5089297;28;20102;-43
2022/07/05 09:36:19;;;;;;;8.85;3.30;;;;;;;37.07;22.01;99632.09;5089627;28;20538;-42
2022/07/05 09:38:51;;;;;;;6.85;3.10;;;;;;;36.88;23.06;99627.59;5093081;28;20399;-43
2022/07/05 09:41:17;;;;;;;6.10;3.35;;;;;;;36.40;23.25;99617.28;5093705;28;20024;-43
2022/07/05 09:43:42;;;;;;;9.93;3.15;;;;;;;36.57;22.29;99620.56;5092824;28;20031;-43
2022/07/05 09:46:08;;;;;;;6.95;3.20;;;;;;;36.84;22.34;99623.19;5093259;28;20017;-43
2022/07/05 09:48:34;;;;;;;12.27;3.28;;;;;;;37.00;21.60;99614.59;5092989;28;20555;-47
2022/07/05 09:51:13;;;;;;;7.72;3.00;;;;;;;37.10;21.00;99616.66;5093181;28;20052;-43
2022/07/05 09:53:45;;;;;;;;;;;;;;;37.19;20.93;99611.59;5093247;28;20035;-44
2022/07/05 09:56:11;;;;;;;6.20;2.85;;;;;;;36.54;21.31;99615.81;5093330;28;19912;-45
2022/07/05 09:58:37;;;;;;;4.70;2.67;;;;;;;36.30;21.55;99614.41;5093010;28;20394;-44
2022/07/05 10:01:26;;;;;;;4.10;2.30;;;;;;;36.40;21.30;99602.59;5093032;28;20039;-43
2022/07/05 10:03:54;;;;;;;6.75;2.70;;;;;;;36.58;20.63;99594.47;5092412;28;20496;-43
2022/07/05 10:06:22;;;;;;;7.68;2.75;;;;;;;36.65;20.92;99596.47;5093080;28;20180;-44
2022/07/05 10:08:48;;;;;;;6.13;2.50;;;;;;;36.76;20.61;99597.41;5093314;28;20023;-43
2022/07/05 10:11:15;;;;;;;4.82;2.88;;;;;;;36.38;21.23;99589.13;5092947;28;20028;-44
2022/07/05 10:13:41;;;;;;;5.88;2.60;;;;;;;36.72;21.08;99591.03;5092697;28;20396;-44
2022/07/05 10:16:06;;;;;;;4.45;2.50;;;;;;;36.74;20.78;99591.44;5092724;28;20032;-44
2022/07/05 10:18:33;;;;;;;7.65;2.70;;;;;;;36.79;20.74;99596.63;5092648;28;20460;-44
2022/07/05 10:21:02;;;;;;;5.15;2.80;;;;;;;36.55;21.21;99593.22;5093105;28;20081;-43
2022/07/05 10:23:29;;;;;;;4.80;2.42;;;;;;;36.53;22.16;99587.28;5093205;28;20407;-43
2022/07/05 10:25:56;;;;;;;4.38;2.60;;;;;;;36.81;21.50;99583.19;5092629;28;20078;-43
2022/07/05 10:28:24;;;;;;;6.28;2.90;;;;;;;37.54;21.16;99591.53;5092683;28;20500;-44
2022/07/05 10:30:50;;;;;;;6.50;2.77;;;;;;;36.93;21.61;99582.06;5092691;28;20042;-45
2022/07/05 10:33:20;;;;;;;6.07;2.88;;;;;;;36.52;22.37;99590.44;5092820;28;20254;-46
2022/07/05 10:35:46;;;;;;;4.35;2.58;;;;;;;36.44;21.55;99586.81;5092354;28;20491;-44
2022/07/05 10:38:13;;;;;;;7.40;2.72;;;;;;;36.46;22.47;99578.13;5092398;28;20039;-44
2022/07/05 10:40:42;;;;;;;7.00;2.70;;;;;;;36.33;22.40;99577.63;5092260;28;20093;-44
2022/07/05 10:43:10;;;;;;;3.65;2.70;;;;;;;35.90;22.73;99574.41;5092327;28;20425;-43
2022/07/05 10:45:39;;;;;;;6.00;2.83;;;;;;;36.45;23.07;99571.00;5092113;28;20078;-43
2022/07/05 10:48:27;;;;;;;5.45;2.65;;;;;;;37.58;21.97;99571.34;5091800;28;20027;-44
2022/07/05 10:51:08;;;;;;;4.47;2.90;;;;;;;36.93;21.84;99577.31;5052110;28;20069;-43
2022/07/05 10:53:36;;;;;;;7.28;3.00;;;;;;;36.60;22.74;99567.16;5051852;28;20029;-44
2022/07/05 10:56:04;;;;;;;9.57;2.92;;;;;;;35.91;23.38;99564.91;5051781;28;20024;-46
2022/07/05 10:58:32;;;;;;;3.67;2.97;;;;;;;36.68;22.88;99551.41;5051263;28;20055;-45
2022/07/05 11:01:16;;;;;;;9.05;2.97;;;;;;;36.61;22.04;99554.88;5051635;28;20038;-42
2022/07/05 11:03:58;;;;;;;6.93;3.40;;;;;;;36.03;23.17;99545.28;5051309;28;20045;-44
2022/07/05 11:06:29;;;;;;;4.60;3.00;;;;;;;36.30;22.79;99557.00;5051693;28;20113;-44
2022/07/05 11:08:57;;;;;;;3.47;2.80;;;;;;;36.72;23.44;99555.00;5051466;28;20079;-45
2022/07/05 11:11:23;;;;;;;;;;;;;;;36.11;23.79;99549.69;5052307;28;20505;-44
2022/07/05 11:13:49;;;;;;;5.68;3.10;;;;;;;35.86;24.93;99549.44;5051659;28;19908;-43
2022/07/05 11:16:27;;;;;;;4.55;3.00;;;;;;;36.43;24.13;99538.13;5051959;28;20058;-44
2022/07/05 11:19:03;;;;;;;4.90;2.97;;;;;;;37.50;23.54;99540.78;5051426;28;20029;-44
2022/07/05 11:21:29;;;;;;;5.53;3.22;;;;;;;37.36;23.13;99538.75;5051712;28;20033;-45
2022/07/05 11:24:27;;;;;;;6.40;3.38;;;;;;;36.50;24.58;99526.31;5051707;28;20048;-44
2022/07/05 11:26:57;;;;;;;4.38;3.20;;;;;;;36.92;23.26;99536.13;5051338;28;20025;-44
2022/07/05 11:29:43;;;;;;;6.95;3.28;;;;;;;36.79;23.34;99521.81;5050948;28;20119;-44
2022/07/05 11:32:13;;;;;;;4.63;3.20;;;;;;;36.90;23.94;99530.16;5051034;28;20082;-46
2022/07/05 11:34:39;;;;;;;4.25;3.45;;;;;;;36.75;22.98;99527.31;5050907;28;20025;-44
2022/07/05 11:37:13;;;;;;;6.05;3.35;;;;;;;36.84;22.97;99512.31;5050935;28;20033;-44
2022/07/05 11:39:43;;;;;;;5.03;3.13;;;;;;;37.25;22.75;99515.72;5050912;28;20055;-45
2022/07/05 11:42:09;;;;;;;8.10;3.38;;;;;;;36.92;23.32;99506.44;5050954;28;20036;-43